createdAt,value
2019-02-25T00:00:47.258Z,82.10
2019-02-25T00:03:16.718Z,82.20
2019-02-25T00:05:46.253Z,82.20
2019-02-25T00:08:15.773Z,82.20
2019-02-25T00:10:45.232Z,82.90
2019-02-25T00:13:14.678Z,82.50
2019-02-25T00:15:44.166Z,82.60
2019-02-25T00:18:13.685Z,83.10
2019-02-25T00:20:43.144Z,82.30
2019-02-25T00:23:12.625Z,82.40
2019-02-25T00:25:42.071Z,82.60
2019-02-25T00:28:11.669Z,82.50
2019-02-25T00:30:41.504Z,83.00
2019-02-25T00:33:10.953Z,82.50
2019-02-25T00:35:40.409Z,82.80
2019-02-25T00:38:09.893Z,82.30
2019-02-25T00:40:39.352Z,82.70
2019-02-25T00:43:08.818Z,82.80
2019-02-25T00:45:38.361Z,82.80
2019-02-25T00:48:07.801Z,82.80
2019-02-25T00:50:37.266Z,83.10
2019-02-25T00:53:06.817Z,82.90
2019-02-25T00:55:36.364Z,83.40
2019-02-25T00:58:05.899Z,83.60
2019-02-25T01:00:35.657Z,83.40
2019-02-25T01:03:06.175Z,83.50
2019-02-25T01:05:35.691Z,84.10
2019-02-25T01:08:07.650Z,84.70
2019-02-25T01:10:36.676Z,85.00
2019-02-25T01:13:06.304Z,84.70
2019-02-25T01:15:36.339Z,85.20
2019-02-25T01:18:05.799Z,86.20
2019-02-25T01:20:35.241Z,87.70
2019-02-25T01:23:04.731Z,85.60
2019-02-25T01:25:34.183Z,85.60
2019-02-25T01:28:03.635Z,85.90
2019-02-25T01:30:33.119Z,86.70
2019-02-25T01:33:02.642Z,86.50
2019-02-25T01:35:32.194Z,87.90
2019-02-25T01:38:01.692Z,86.50
2019-02-25T01:40:31.131Z,84.50
2019-02-25T01:43:00.596Z,84.40
2019-02-25T01:45:30.080Z,84.20
2019-02-25T01:47:59.594Z,84.30
2019-02-25T01:50:29.001Z,84.50
2019-02-25T01:52:58.481Z,84.20
2019-02-25T01:55:27.931Z,84.20
2019-02-25T01:57:57.399Z,84.80
2019-02-25T02:00:26.951Z,84.80
2019-02-25T02:02:56.500Z,85.00
2019-02-25T02:05:25.952Z,84.90
2019-02-25T02:07:55.437Z,85.00
2019-02-25T02:10:24.892Z,85.30
2019-02-25T02:12:54.405Z,85.40
2019-02-25T02:15:23.952Z,85.40
2019-02-25T02:17:53.459Z,84.90
2019-02-25T02:20:22.910Z,85.40
2019-02-25T02:22:52.389Z,84.80
2019-02-25T02:25:21.850Z,84.70
2019-02-25T02:27:51.311Z,84.60
2019-02-25T02:30:22.911Z,83.80
2019-02-25T02:32:52.382Z,83.80
2019-02-25T02:35:21.840Z,82.90
2019-02-25T02:37:51.325Z,84.10
2019-02-25T02:40:20.768Z,83.70
2019-02-25T02:42:57.833Z,83.00
2019-02-25T02:45:37.344Z,82.30
2019-02-25T02:48:17.184Z,82.50
2019-02-25T02:50:46.728Z,82.40
2019-02-25T02:53:16.184Z,82.20
2019-02-25T02:55:45.665Z,82.20
2019-02-25T02:58:15.129Z,82.00
2019-02-25T03:00:44.586Z,82.00
2019-02-25T03:03:14.077Z,81.60
2019-02-25T03:05:43.593Z,82.00
2019-02-25T03:08:13.049Z,81.90
2019-02-25T03:10:42.542Z,81.60
2019-02-25T03:13:12.002Z,81.20
2019-02-25T03:15:41.444Z,80.90
2019-02-25T03:18:10.931Z,80.50
2019-02-25T03:20:40.381Z,80.40
2019-02-25T03:23:09.839Z,80.00
2019-02-25T03:25:39.318Z,79.70
2019-02-25T03:28:08.778Z,80.10
2019-02-25T03:30:38.221Z,79.90
2019-02-25T03:33:07.712Z,80.00
2019-02-25T03:35:37.257Z,81.20
2019-02-25T03:38:06.706Z,80.80
2019-02-25T03:40:36.195Z,81.20
2019-02-25T03:43:05.680Z,79.80
2019-02-25T03:45:35.125Z,79.70
2019-02-25T03:48:04.602Z,79.80
2019-02-25T03:50:35.098Z,79.60
2019-02-25T03:53:04.621Z,79.20
2019-02-25T03:55:34.077Z,78.90
2019-02-25T03:58:03.525Z,78.80
2019-02-25T04:00:33.067Z,78.50
2019-02-25T04:03:02.518Z,78.70
2019-02-25T04:05:32.126Z,78.80
2019-02-25T04:08:01.620Z,78.50
2019-02-25T04:10:31.067Z,78.10
2019-02-25T04:13:00.519Z,78.20
2019-02-25T04:15:31.704Z,78.10
2019-02-25T04:18:01.248Z,78.80
2019-02-25T04:20:31.148Z,78.60
2019-02-25T04:23:00.825Z,79.00
2019-02-25T04:25:30.283Z,78.70
2019-02-25T04:27:59.740Z,78.70
2019-02-25T04:30:29.210Z,78.90
2019-02-25T04:32:58.738Z,78.80
2019-02-25T04:35:28.191Z,79.10
2019-02-25T04:37:57.668Z,79.10
2019-02-25T04:40:27.112Z,79.40
2019-02-25T04:42:56.571Z,79.10
2019-02-25T04:45:26.038Z,79.50
2019-02-25T04:47:55.489Z,79.40
2019-02-25T04:50:24.952Z,79.90
2019-02-25T04:52:54.430Z,79.70
2019-02-25T04:55:23.883Z,80.30
2019-02-25T04:57:53.339Z,80.60
2019-02-25T05:00:27.587Z,80.70
2019-02-25T05:02:57.053Z,81.20
2019-02-25T05:05:26.498Z,81.20
2019-02-25T05:07:55.953Z,81.40
2019-02-25T05:10:25.972Z,81.70
2019-02-25T05:13:03.114Z,82.20
2019-02-25T05:15:34.061Z,82.60
2019-02-25T05:18:03.473Z,82.90
2019-02-25T05:20:33.179Z,83.50
2019-02-25T05:23:02.637Z,83.70
2019-02-25T05:25:32.112Z,83.90
2019-02-25T05:28:01.552Z,83.90
2019-02-25T05:30:31.005Z,84.00
2019-02-25T05:33:00.487Z,84.10
2019-02-25T05:35:29.965Z,84.10
2019-02-25T05:37:59.450Z,84.60
2019-02-25T05:40:28.902Z,83.70
2019-02-25T05:42:58.390Z,84.40
2019-02-25T05:45:27.831Z,84.40
2019-02-25T05:47:57.312Z,83.70
2019-02-25T05:50:26.780Z,84.20
2019-02-25T05:52:56.248Z,84.10
2019-02-25T05:55:25.711Z,84.20
2019-02-25T05:57:55.186Z,84.70
2019-02-25T06:00:26.908Z,84.40
2019-02-25T06:02:56.370Z,84.90
2019-02-25T06:05:25.915Z,88.60
2019-02-25T06:07:55.356Z,84.50
2019-02-25T06:10:24.805Z,84.30
2019-02-25T06:12:54.278Z,84.30
2019-02-25T06:15:23.733Z,84.80
2019-02-25T06:17:53.182Z,84.80
2019-02-25T06:20:22.671Z,84.90
2019-02-25T06:22:52.113Z,85.40
2019-02-25T06:25:21.558Z,85.20
2019-02-25T06:27:51.027Z,85.20
2019-02-25T06:30:22.302Z,85.00
2019-02-25T06:32:51.739Z,85.10
2019-02-25T06:35:21.285Z,84.10
2019-02-25T06:37:50.729Z,83.90
2019-02-25T06:40:21.387Z,84.60
2019-02-25T06:42:50.950Z,84.70
2019-02-25T06:45:36.012Z,84.70
2019-02-25T06:48:05.552Z,84.30
2019-02-25T06:50:35.010Z,84.50
2019-02-25T06:53:04.456Z,84.20
2019-02-25T06:55:33.936Z,84.70
2019-02-25T06:58:03.390Z,84.10
2019-02-25T07:00:32.831Z,84.30
2019-02-25T07:03:02.536Z,84.60
2019-02-25T07:05:33.622Z,84.50
2019-02-25T07:08:04.774Z,84.20
2019-02-25T07:10:44.679Z,83.50
2019-02-25T07:13:30.880Z,83.10
2019-02-25T07:16:02.021Z,84.30
2019-02-25T07:18:39.367Z,83.90
2019-02-25T07:21:13.103Z,82.90
2019-02-25T07:23:46.915Z,83.60
2019-02-25T07:26:20.702Z,82.90
2019-02-25T07:29:03.612Z,83.20
2019-02-25T07:31:44.010Z,83.90
2019-02-25T07:34:31.295Z,83.40
2019-02-25T07:37:02.420Z,82.50
2019-02-25T07:39:39.247Z,82.80
2019-02-25T07:42:10.365Z,82.10
2019-02-25T07:44:50.275Z,81.90
2019-02-25T07:47:21.390Z,81.60
2019-02-25T07:49:55.406Z,82.30
2019-02-25T07:52:32.455Z,82.20
2019-02-25T07:55:18.673Z,83.20
2019-02-25T07:58:07.915Z,83.60
2019-02-25T08:00:39.012Z,84.50
2019-02-25T08:03:10.108Z,85.20
2019-02-25T08:05:44.202Z,85.00
2019-02-25T08:08:15.286Z,88.10
2019-02-25T08:10:55.304Z,84.60
2019-02-25T08:13:41.716Z,83.10
2019-02-25T08:16:15.314Z,83.00
2019-02-25T08:18:52.387Z,82.90
2019-02-25T08:21:29.500Z,83.30
2019-02-25T08:24:04.454Z,83.50
2019-02-25T08:26:44.682Z,83.40
2019-02-25T08:29:15.784Z,82.70
2019-02-25T08:31:46.925Z,82.60
2019-02-25T08:34:18.896Z,83.10
2019-02-25T08:37:09.789Z,83.10
2019-02-25T08:39:53.689Z,83.70
2019-02-25T08:42:25.272Z,83.50
2019-02-25T08:44:56.396Z,83.70
2019-02-25T08:47:27.505Z,83.80
2019-02-25T08:49:57.333Z,84.00
2019-02-25T08:52:26.793Z,84.10
2019-02-25T08:54:56.251Z,83.90
2019-02-25T08:57:25.813Z,84.80
2019-02-25T08:59:55.261Z,83.90
2019-02-25T09:02:24.750Z,84.70
2019-02-25T09:04:54.195Z,85.00
2019-02-25T09:07:23.689Z,85.00
2019-02-25T09:09:53.140Z,85.30
2019-02-25T09:12:22.644Z,84.10
2019-02-25T09:14:52.099Z,85.30
2019-02-25T09:17:21.560Z,85.30
2019-02-25T09:19:51.022Z,85.50
2019-02-25T09:22:20.484Z,85.40
2019-02-25T09:24:49.943Z,85.20
2019-02-25T09:27:19.392Z,85.20
2019-02-25T09:29:48.885Z,86.20
2019-02-25T09:32:19.082Z,85.80
2019-02-25T09:34:48.727Z,86.10
2019-02-25T09:37:18.181Z,85.80
2019-02-25T09:39:47.671Z,86.20
2019-02-25T09:42:17.134Z,86.80
2019-02-25T09:44:46.596Z,86.80
2019-02-25T09:47:16.071Z,87.40
2019-02-25T09:49:45.531Z,88.00
2019-02-25T09:52:15.007Z,87.60
2019-02-25T09:54:44.459Z,88.40
2019-02-25T09:57:13.944Z,87.90
2019-02-25T09:59:43.430Z,89.70
2019-02-25T10:02:12.889Z,89.90
2019-02-25T10:04:42.368Z,90.00
2019-02-25T10:07:11.856Z,89.90
2019-02-25T10:09:41.315Z,89.50
2019-02-25T10:12:10.777Z,89.70
2019-02-25T10:14:40.262Z,90.00
2019-02-25T10:17:09.700Z,89.00
2019-02-25T10:19:39.184Z,88.60
2019-02-25T10:22:08.639Z,89.10
2019-02-25T10:24:39.827Z,88.30
2019-02-25T10:27:09.482Z,88.30
2019-02-25T10:29:38.927Z,87.50
2019-02-25T10:32:08.370Z,87.40
2019-02-25T10:34:37.831Z,88.40
2019-02-25T10:37:08.887Z,87.00
2019-02-25T10:39:38.517Z,87.60
2019-02-25T10:42:07.990Z,87.70
2019-02-25T10:44:38.261Z,87.40
2019-02-25T10:47:08.688Z,86.50
2019-02-25T10:49:38.178Z,86.30
2019-02-25T10:52:08.741Z,85.50
2019-02-25T10:54:38.871Z,85.50
2019-02-25T10:57:08.354Z,84.90
2019-02-25T10:59:40.959Z,85.70
2019-02-25T11:02:11.058Z,85.00
2019-02-25T11:04:40.268Z,85.80
2019-02-25T11:07:09.811Z,85.30
2019-02-25T11:09:42.045Z,85.30
2019-02-25T11:12:12.220Z,85.10
2019-02-25T11:14:43.378Z,83.40
2019-02-25T11:17:13.918Z,83.70
2019-02-25T11:19:43.869Z,83.50
2019-02-25T11:22:14.637Z,83.30
2019-02-25T11:24:46.468Z,81.40
2019-02-25T11:27:16.038Z,83.20
2019-02-25T11:29:46.220Z,82.70
2019-02-25T11:32:17.348Z,82.20
2019-02-25T11:34:47.918Z,82.50
2019-02-25T11:37:19.726Z,81.70
2019-02-25T11:39:48.708Z,81.80
2019-02-25T11:42:20.551Z,82.40
2019-02-25T11:44:49.460Z,82.40
2019-02-25T11:47:18.938Z,81.70
2019-02-25T11:49:48.417Z,82.60
2019-02-25T11:52:17.986Z,82.80
2019-02-25T11:54:47.448Z,80.60
2019-02-25T11:57:16.930Z,81.20
2019-02-25T11:59:51.279Z,81.60
2019-02-25T12:02:25.499Z,80.50
2019-02-25T12:04:52.221Z,81.30
2019-02-25T12:07:21.679Z,80.40
2019-02-25T12:09:51.195Z,81.70
2019-02-25T12:12:20.643Z,80.80
2019-02-25T12:14:50.130Z,80.80
2019-02-25T12:17:19.601Z,80.80
2019-02-25T12:19:49.113Z,80.90
2019-02-25T12:22:18.603Z,80.30
2019-02-25T12:24:48.049Z,81.00
2019-02-25T12:27:17.583Z,79.40
2019-02-25T12:29:47.083Z,80.70
2019-02-25T12:32:16.548Z,80.20
2019-02-25T12:34:46.022Z,80.80
2019-02-25T12:37:15.489Z,80.30
2019-02-25T12:39:44.988Z,80.70
2019-02-25T12:42:14.513Z,80.90
2019-02-25T12:44:44.019Z,81.20
2019-02-25T12:47:13.485Z,81.60
2019-02-25T12:49:43.014Z,82.70
2019-02-25T12:52:12.517Z,81.80
2019-02-25T12:54:41.969Z,83.00
2019-02-25T12:57:11.472Z,83.40
2019-02-25T12:59:40.966Z,83.90
2019-02-25T13:02:10.429Z,82.80
2019-02-25T13:04:39.924Z,82.70
2019-02-25T13:07:09.592Z,83.60
2019-02-25T13:09:39.038Z,80.10
2019-02-25T13:12:08.514Z,79.50
2019-02-25T13:14:38.003Z,80.00
2019-02-25T13:17:07.462Z,79.10
2019-02-25T13:19:38.449Z,78.40
2019-02-25T13:22:07.950Z,79.80
2019-02-25T13:24:39.408Z,79.00
2019-02-25T13:27:11.064Z,79.50
2019-02-25T13:29:39.836Z,79.30
2019-02-25T13:32:09.306Z,78.30
2019-02-25T13:34:38.923Z,78.70
2019-02-25T13:37:08.688Z,78.20
2019-02-25T13:39:38.138Z,78.10
2019-02-25T13:42:07.601Z,78.30
2019-02-25T13:44:37.089Z,78.40
2019-02-25T13:47:06.569Z,79.30
2019-02-25T13:49:36.052Z,78.40
2019-02-25T13:52:05.555Z,77.20
2019-02-25T13:54:35.432Z,78.30
2019-02-25T13:57:04.888Z,77.90
2019-02-25T13:59:34.338Z,78.00
2019-02-25T14:02:03.999Z,77.10
2019-02-25T14:04:33.466Z,77.60
2019-02-25T14:07:02.914Z,78.30
2019-02-25T14:09:32.463Z,78.10
2019-02-25T14:12:01.951Z,79.20
2019-02-25T14:14:31.419Z,78.30
2019-02-25T14:17:00.926Z,79.00
2019-02-25T14:19:30.471Z,78.90
2019-02-25T14:21:59.926Z,79.50
2019-02-25T14:24:29.701Z,79.30
2019-02-25T14:26:59.237Z,78.00
2019-02-25T14:29:28.786Z,78.10
2019-02-25T14:31:58.244Z,78.40
2019-02-25T14:34:27.749Z,78.40
2019-02-25T14:36:59.209Z,78.60
2019-02-25T14:39:30.397Z,78.90
2019-02-25T14:42:01.747Z,78.70
2019-02-25T14:44:33.147Z,79.80
2019-02-25T14:47:03.404Z,78.50
2019-02-25T14:49:35.206Z,78.70
2019-02-25T14:52:05.278Z,78.40
2019-02-25T14:54:34.770Z,77.40
2019-02-25T14:57:04.577Z,77.70
2019-02-25T14:59:34.010Z,78.70
2019-02-25T15:02:04.010Z,78.60
2019-02-25T15:04:35.797Z,78.00
2019-02-25T15:07:06.856Z,78.60
2019-02-25T15:09:39.084Z,78.30
2019-02-25T15:12:09.753Z,78.60
2019-02-25T15:14:39.734Z,79.20
2019-02-25T15:17:10.539Z,79.70
2019-02-25T15:19:41.304Z,79.80
2019-02-25T15:22:11.990Z,80.40
2019-02-25T15:24:44.091Z,81.00
2019-02-25T15:27:12.986Z,80.70
2019-02-25T15:29:44.757Z,81.00
2019-02-25T15:32:14.262Z,81.50
2019-02-25T15:34:43.923Z,81.40
2019-02-25T15:37:14.003Z,81.50
2019-02-25T15:39:43.673Z,80.90
2019-02-25T15:42:13.212Z,81.40
2019-02-25T15:44:44.502Z,80.80
2019-02-25T15:47:15.094Z,81.20
2019-02-25T15:49:44.636Z,81.80
2019-02-25T15:52:16.568Z,81.80
2019-02-25T15:54:45.326Z,82.10
2019-02-25T15:57:14.799Z,81.80
2019-02-25T15:59:44.328Z,82.20
2019-02-25T16:02:14.371Z,82.60
2019-02-25T16:04:43.923Z,82.60
2019-02-25T16:07:13.485Z,82.90
2019-02-25T16:09:43.320Z,82.50
2019-02-25T16:12:12.851Z,82.50
2019-02-25T16:14:44.165Z,82.60
2019-02-25T16:17:13.602Z,83.20
2019-02-25T16:19:47.358Z,82.40
2019-02-25T16:22:14.266Z,83.00
2019-02-25T16:24:43.794Z,82.90
2019-02-25T16:27:13.961Z,83.00
2019-02-25T16:29:43.460Z,83.30
2019-02-25T16:32:13.168Z,83.20
2019-02-25T16:34:42.786Z,84.60
2019-02-25T16:37:12.407Z,84.50
2019-02-25T16:39:41.994Z,84.50
2019-02-25T16:42:11.924Z,85.10
2019-02-25T16:44:41.474Z,85.40
2019-02-25T16:47:11.868Z,86.10
2019-02-25T16:49:42.159Z,86.10
2019-02-25T16:52:13.747Z,86.40
2019-02-25T16:54:43.255Z,87.20
2019-02-25T16:57:14.191Z,86.80
2019-02-25T16:59:43.939Z,87.40
2019-02-25T17:02:14.226Z,87.40
2019-02-25T17:04:43.785Z,87.50
2019-02-25T17:07:14.384Z,88.00
2019-02-25T17:09:46.021Z,88.90
2019-02-25T17:12:15.488Z,88.60
2019-02-25T17:14:45.160Z,89.10
2019-02-25T17:17:14.803Z,89.50
2019-02-25T17:19:44.267Z,89.60
2019-02-25T17:22:13.754Z,90.10
2019-02-25T17:24:43.279Z,90.00
2019-02-25T17:27:14.158Z,90.10
2019-02-25T17:29:43.772Z,90.10
2019-02-25T17:32:14.594Z,90.20
2019-02-25T17:34:45.043Z,90.20
2019-02-25T17:37:16.645Z,90.30
2019-02-25T17:39:46.038Z,90.20
2019-02-25T17:42:15.739Z,90.50
2019-02-25T17:44:45.670Z,90.40
2019-02-25T17:47:24.049Z,90.50
2019-02-25T17:49:46.366Z,90.50
2019-02-25T17:52:16.820Z,90.60
2019-02-25T17:54:48.703Z,90.70
2019-02-25T17:57:18.531Z,90.70
2019-02-25T17:59:48.783Z,90.80
2019-02-25T18:02:19.235Z,90.90
2019-02-25T18:04:49.260Z,91.50
2019-02-25T18:07:19.900Z,91.30
2019-02-25T18:09:49.475Z,91.50
2019-02-25T18:12:20.335Z,91.70
2019-02-25T18:14:49.799Z,92.20
2019-02-25T18:17:21.523Z,92.50
2019-02-25T18:19:52.280Z,92.60
2019-02-25T18:22:21.890Z,92.80
2019-02-25T18:24:51.554Z,92.90
2019-02-25T18:27:21.074Z,93.30
2019-02-25T18:29:50.916Z,93.20
2019-02-25T18:32:21.738Z,93.50
2019-02-25T18:34:52.159Z,93.60
2019-02-25T18:37:22.683Z,93.60
2019-02-25T18:39:54.294Z,93.90
2019-02-25T18:42:23.575Z,93.90
2019-02-25T18:44:53.564Z,94.10
2019-02-25T18:47:25.574Z,94.20
2019-02-25T18:49:56.569Z,94.50
2019-02-25T18:52:27.426Z,94.50
2019-02-25T18:54:59.730Z,94.60
2019-02-25T18:57:29.523Z,94.90
2019-02-25T19:00:01.769Z,94.90
2019-02-25T19:02:33.407Z,95.10
2019-02-25T19:05:04.486Z,94.90
2019-02-25T19:07:34.742Z,95.00
2019-02-25T19:10:04.473Z,95.20
2019-02-25T19:12:34.346Z,95.20
2019-02-25T19:15:05.478Z,95.30
2019-02-25T19:17:36.034Z,95.60
2019-02-25T19:20:08.899Z,95.60
2019-02-25T19:22:41.805Z,95.60
2019-02-25T19:25:15.812Z,95.70
2019-02-25T19:27:44.506Z,95.90
2019-02-25T19:30:19.765Z,95.90
2019-02-25T19:32:50.611Z,95.80
2019-02-25T19:35:21.889Z,95.80
2019-02-25T19:37:52.076Z,95.80
2019-02-25T19:40:24.490Z,96.00
2019-02-25T19:42:56.753Z,95.70
2019-02-25T19:45:25.988Z,95.80
2019-02-25T19:47:57.890Z,96.00
2019-02-25T19:50:27.710Z,95.80
2019-02-25T19:53:00.437Z,95.90
2019-02-25T19:55:29.031Z,96.00
2019-02-25T19:57:58.849Z,96.00
2019-02-25T20:00:30.533Z,96.00
2019-02-25T20:03:05.778Z,96.00
2019-02-25T20:05:33.526Z,96.00
2019-02-25T20:08:02.988Z,96.20
2019-02-25T20:10:32.719Z,96.20
2019-02-25T20:13:05.345Z,96.30
2019-02-25T20:15:37.631Z,96.40
2019-02-25T20:18:06.984Z,96.40
2019-02-25T20:20:38.415Z,96.40
2019-02-25T20:23:08.566Z,96.50
2019-02-25T20:25:38.110Z,96.60
2019-02-25T20:28:07.691Z,96.40
2019-02-25T20:30:37.188Z,96.50
2019-02-25T20:33:08.599Z,96.50
2019-02-25T20:35:37.881Z,96.30
2019-02-25T20:38:07.361Z,96.20
2019-02-25T20:40:36.811Z,96.10
2019-02-25T20:43:06.435Z,96.00
2019-02-25T20:45:36.651Z,96.00
2019-02-25T20:48:06.584Z,95.90
2019-02-25T20:50:36.076Z,96.10
2019-02-25T20:53:07.992Z,95.90
2019-02-25T20:55:36.789Z,95.80
2019-02-25T20:58:06.570Z,95.90
2019-02-25T21:00:39.056Z,95.80
2019-02-25T21:03:07.511Z,96.20
2019-02-25T21:05:36.962Z,96.10
2019-02-25T21:08:08.092Z,95.80
2019-02-25T21:10:37.596Z,95.80
2019-02-25T21:13:07.051Z,95.90
2019-02-25T21:15:38.347Z,95.80
2019-02-25T21:18:08.366Z,95.90
2019-02-25T21:20:37.811Z,95.90
2019-02-25T21:23:08.557Z,96.10
2019-02-25T21:25:38.736Z,96.00
2019-02-25T21:28:09.102Z,96.00
2019-02-25T21:30:41.412Z,96.10
2019-02-25T21:33:13.343Z,96.60
2019-02-25T21:35:41.962Z,96.10
2019-02-25T21:38:11.487Z,96.00
2019-02-25T21:40:40.933Z,96.20
2019-02-25T21:43:14.413Z,96.30
2019-02-25T21:45:41.764Z,96.30
2019-02-25T21:48:11.259Z,96.10
2019-02-25T21:50:42.576Z,96.10
2019-02-25T21:53:13.943Z,96.30
2019-02-25T21:55:43.103Z,96.30
2019-02-25T21:58:12.562Z,96.30
2019-02-25T22:00:42.025Z,96.40
2019-02-25T22:03:13.227Z,96.30
2019-02-25T22:05:42.687Z,96.30
2019-02-25T22:08:12.143Z,96.30
2019-02-25T22:10:43.609Z,96.40
2019-02-25T22:13:14.287Z,96.50
2019-02-25T22:15:45.261Z,96.40
2019-02-25T22:18:14.863Z,96.50
2019-02-25T22:20:45.446Z,96.60
2019-02-25T22:23:15.534Z,96.50
2019-02-25T22:25:44.982Z,96.50
2019-02-25T22:28:14.447Z,96.80
2019-02-25T22:30:45.267Z,96.40
2019-02-25T22:33:27.266Z,96.60
2019-02-25T22:35:49.169Z,96.50
2019-02-25T22:38:17.993Z,96.60
2019-02-25T22:40:47.556Z,96.90
2019-02-25T22:43:18.738Z,96.70
2019-02-25T22:45:48.198Z,96.80
2019-02-25T22:48:19.091Z,97.00
2019-02-25T22:50:51.268Z,96.90
2019-02-25T22:53:20.125Z,97.10
2019-02-25T22:55:51.952Z,97.10
2019-02-25T22:58:20.797Z,97.70
2019-02-25T23:00:53.008Z,97.10
2019-02-25T23:03:25.045Z,97.20
2019-02-25T23:05:55.234Z,97.30
2019-02-25T23:08:26.047Z,97.40
2019-02-25T23:10:55.721Z,97.60
2019-02-25T23:13:27.475Z,97.70
2019-02-25T23:15:56.352Z,97.80
2019-02-25T23:18:28.022Z,97.90
2019-02-25T23:20:59.653Z,97.90
2019-02-25T23:23:30.104Z,98.10
2019-02-25T23:25:59.422Z,98.20
2019-02-25T23:28:30.471Z,98.30
2019-02-25T23:31:00.147Z,98.30
2019-02-25T23:33:29.626Z,98.40
2019-02-25T23:35:59.073Z,98.50
2019-02-25T23:38:28.536Z,98.60
2019-02-25T23:41:01.232Z,98.60
2019-02-25T23:43:33.807Z,98.70
2019-02-25T23:46:02.176Z,98.70
2019-02-25T23:48:33.703Z,98.70
2019-02-25T23:51:02.830Z,98.80
2019-02-25T23:53:32.936Z,98.80
2019-02-25T23:56:03.493Z,98.80
2019-02-25T23:58:32.941Z,98.90
